Time;durP1;ratioP1;P1;durP2;ratioP2;P2;SDS_P1;SDS_P2;PMS_P1;PMS_P2;Temp;Humidity;BMP_temperature;BMP_pressure;BME280_temperature;BME280_humidity;BME280_pressure;Samples;Min_cycle;Max_cycle;Signal;HPM_P1;HPM_P2
2023/03/26 00:01:53;;;;;;;1.30;1.30;;;;;;;;;;4968560;28;20321;-57
2023/03/26 00:04:20;;;;;;;1.30;1.30;;;;;;;;;;4974404;28;20234;-56
2023/03/26 00:06:47;;;;;;;1.30;1.30;;;;;;;;;;4974171;28;20191;-59
2023/03/26 00:09:14;;;;;;;1.40;1.40;;;;;;;;;;4971469;28;20202;-56
2023/03/26 00:11:40;;;;;;;1.40;1.40;;;;;;;;;;4968213;28;20914;-56
2023/03/26 00:14:08;;;;;;;1.33;1.33;;;;;;;;;;4972172;28;20196;-56
2023/03/26 00:16:34;;;;;;;1.40;1.40;;;;;;;;;;4970726;28;20334;-56
2023/03/26 00:19:00;;;;;;;1.60;1.60;;;;;;;;;;4960352;28;20190;-56
2023/03/26 00:21:27;;;;;;;1.20;1.20;;;;;;;;;;4969507;28;20225;-56
2023/03/26 00:23:58;;;;;;;1.30;1.30;;;;;;;;;;4973974;28;20229;-56
2023/03/26 00:26:24;;;;;;;1.13;1.13;;;;;;;;;;4959868;28;20202;-56
2023/03/26 00:28:50;;;;;;;1.30;1.30;;;;;;;;;;4976198;28;20639;-56
2023/03/26 00:31:16;;;;;;;1.20;1.20;;;;;;;;;;4970017;28;20203;-58
2023/03/26 00:33:42;;;;;;;1.30;1.30;;;;;;;;;;4959533;28;20249;-58
2023/03/26 00:36:16;;;;;;;1.13;1.13;;;;;;;;;;4972220;28;20199;-56
2023/03/26 00:38:42;;;;;;;1.10;1.10;;;;;;;;;;4972383;28;20614;-57
2023/03/26 00:41:16;;;;;;;1.30;1.30;;;;;;;;;;4972781;28;20193;-56
2023/03/26 00:43:42;;;;;;;1.40;1.40;;;;;;;;;;4954813;28;20570;-57
2023/03/26 00:46:08;;;;;;;1.40;1.40;;;;;;;;;;4971076;28;20187;-57
2023/03/26 00:48:37;;;;;;;1.30;1.30;;;;;;;;;;4974259;28;20202;-57
2023/03/26 00:51:03;;;;;;;1.30;1.30;;;;;;;;;;4969293;28;20599;-56
2023/03/26 00:53:29;;;;;;;1.20;1.20;;;;;;;;;;4968984;28;20187;-56
2023/03/26 00:55:59;;;;;;;1.20;1.20;;;;;;;;;;4967460;28;20608;-57
2023/03/26 00:58:25;;;;;;;1.30;1.30;;;;;;;;;;4970864;28;20234;-56
2023/03/26 01:00:51;;;;;;;1.50;1.50;;;;;;;;;;4970962;28;20209;-57
2023/03/26 01:03:18;;;;;;;1.50;1.50;;;;;;;;;;4970988;28;20288;-57
2023/03/26 01:05:51;;;;;;;1.40;1.40;;;;;;;;;;4968335;28;20193;-56
2023/03/26 01:08:21;;;;;;;1.10;1.10;;;;;;;;;;4974702;28;20286;-57
2023/03/26 01:10:51;;;;;;;1.20;1.20;;;;;;;;;;4969461;28;20276;-57
2023/03/26 01:13:20;;;;;;;1.40;1.40;;;;;;;;;;4966424;28;20244;-57
2023/03/26 01:15:49;;;;;;;1.20;1.20;;;;;;;;;;4956977;28;20191;-57
2023/03/26 01:18:16;;;;;;;1.10;1.10;;;;;;;;;;4971919;28;20273;-56
2023/03/26 01:20:45;;;;;;;1.10;1.10;;;;;;;;;;4968196;28;20195;-57
2023/03/26 01:23:12;;;;;;;1.40;1.40;;;;;;;;;;4959002;28;20559;-56
2023/03/26 01:25:38;;;;;;;1.20;1.20;;;;;;;;;;4971080;28;20602;-57
2023/03/26 01:28:04;;;;;;;1.30;1.30;;;;;;;;;;4960352;28;20182;-56
2023/03/26 01:30:32;;;;;;;1.50;1.50;;;;;;;;;;4951335;28;20194;-56
2023/03/26 01:32:59;;;;;;;1.33;1.33;;;;;;;;;;4967222;28;20552;-56
2023/03/26 01:35:37;;;;;;;1.40;1.40;;;;;;;;;;4972144;28;20425;-56
2023/03/26 01:38:15;;;;;;;1.27;1.27;;;;;;;;;;4971653;28;20190;-57
2023/03/26 01:40:48;;;;;;;1.20;1.20;;;;;;;;;;4973852;28;20659;-56
2023/03/26 01:43:32;;;;;;;1.10;1.10;;;;;;;;;;4970923;28;20229;-56
2023/03/26 01:45:59;;;;;;;1.00;1.00;;;;;;;;;;4951524;28;20212;-56
2023/03/26 01:48:33;;;;;;;1.00;1.00;;;;;;;;;;4971124;28;20237;-56
2023/03/26 01:50:59;;;;;;;1.10;1.10;;;;;;;;;;4966291;28;20647;-56
2023/03/26 01:53:25;;;;;;;1.10;1.10;;;;;;;;;;4970760;28;20182;-56
2023/03/26 01:56:12;;;;;;;1.30;1.30;;;;;;;;;;4969095;28;20545;-56
2023/03/26 01:58:54;;;;;;;1.17;1.17;;;;;;;;;;4969517;28;20219;-57
2023/03/26 02:01:28;;;;;;;1.00;1.00;;;;;;;;;;4967758;28;20194;-56
2023/03/26 02:04:13;;;;;;;1.20;1.20;;;;;;;;;;4968289;28;20966;-56
2023/03/26 02:06:46;;;;;;;1.00;1.00;;;;;;;;;;4970399;28;20194;-56
2023/03/26 02:09:13;;;;;;;1.40;1.40;;;;;;;;;;4974836;28;20191;-57
2023/03/26 02:11:39;;;;;;;1.40;1.40;;;;;;;;;;4973825;28;20186;-56
2023/03/26 02:14:05;;;;;;;1.00;1.00;;;;;;;;;;4974287;28;20206;-56
2023/03/26 02:16:31;;;;;;;1.20;1.20;;;;;;;;;;4962260;28;20273;-56
2023/03/26 02:18:58;;;;;;;1.10;1.10;;;;;;;;;;4970724;28;20187;-56
2023/03/26 02:21:24;;;;;;;1.20;1.20;;;;;;;;;;4972186;28;20202;-58
2023/03/26 02:23:56;;;;;;;1.10;1.10;;;;;;;;;;4973409;28;20218;-56
2023/03/26 02:26:22;;;;;;;1.30;1.30;;;;;;;;;;4976892;28;20233;-56
2023/03/26 02:28:48;;;;;;;1.20;1.20;;;;;;;;;;4970659;28;20558;-56
2023/03/26 02:31:14;;;;;;;1.30;1.30;;;;;;;;;;4968562;28;20655;-56
2023/03/26 02:33:43;;;;;;;1.00;1.00;;;;;;;;;;4971803;28;20218;-57
2023/03/26 02:36:12;;;;;;;1.20;1.20;;;;;;;;;;4980234;28;20628;-56
2023/03/26 02:38:38;;;;;;;1.10;1.10;;;;;;;;;;4975244;28;20194;-55
2023/03/26 02:41:04;;;;;;;0.90;0.90;;;;;;;;;;4972973;28;20187;-57
2023/03/26 02:43:30;;;;;;;0.90;0.90;;;;;;;;;;4974029;28;20267;-57
2023/03/26 02:45:56;;;;;;;0.90;0.90;;;;;;;;;;4968327;28;20191;-56
2023/03/26 02:48:22;;;;;;;0.77;0.77;;;;;;;;;;4972572;28;20189;-57
2023/03/26 02:50:53;;;;;;;0.77;0.77;;;;;;;;;;4976985;28;20202;-56
2023/03/26 02:53:20;;;;;;;0.90;0.90;;;;;;;;;;4971422;28;20801;-55
2023/03/26 02:55:46;;;;;;;1.00;1.00;;;;;;;;;;4957107;28;20486;-56
2023/03/26 02:58:16;;;;;;;0.90;0.90;;;;;;;;;;4968646;28;20794;-57
2023/03/26 03:00:45;;;;;;;1.20;1.20;;;;;;;;;;4970746;28;20241;-56
2023/03/26 03:03:12;;;;;;;1.60;1.60;;;;;;;;;;4969165;28;20612;-56
2023/03/26 03:05:41;;;;;;;1.50;1.50;;;;;;;;;;4971376;28;20214;-57
2023/03/26 03:08:07;;;;;;;1.40;1.40;;;;;;;;;;4971898;28;20185;-57
2023/03/26 03:10:33;;;;;;;1.50;1.50;;;;;;;;;;4969571;28;20187;-56
2023/03/26 03:12:59;;;;;;;1.20;1.20;;;;;;;;;;4967077;28;20304;-57
2023/03/26 03:15:26;;;;;;;1.20;1.20;;;;;;;;;;4968258;28;20712;-57
2023/03/26 03:17:52;;;;;;;1.20;1.20;;;;;;;;;;4978980;28;20564;-56
2023/03/26 03:20:18;;;;;;;1.10;1.10;;;;;;;;;;4973698;28;20415;-56
2023/03/26 03:22:44;;;;;;;1.20;1.20;;;;;;;;;;4976610;28;20191;-56
2023/03/26 03:25:16;;;;;;;1.20;1.20;;;;;;;;;;4973409;28;20221;-57
2023/03/26 03:27:42;;;;;;;1.47;1.47;;;;;;;;;;4975493;28;20204;-56
2023/03/26 03:30:08;;;;;;;1.10;1.10;;;;;;;;;;4969978;28;20195;-56
2023/03/26 03:32:34;;;;;;;1.10;1.10;;;;;;;;;;4977267;28;20683;-56
2023/03/26 03:35:00;;;;;;;1.10;1.10;;;;;;;;;;4969329;28;20277;-56
2023/03/26 03:37:26;;;;;;;1.20;1.20;;;;;;;;;;4973767;28;20730;-56
2023/03/26 03:39:52;;;;;;;1.20;1.20;;;;;;;;;;4972319;28;20225;-56
2023/03/26 03:42:18;;;;;;;1.30;1.30;;;;;;;;;;4975938;28;20611;-56
2023/03/26 03:44:44;;;;;;;1.40;1.40;;;;;;;;;;4973052;28;20217;-56
2023/03/26 03:47:12;;;;;;;1.27;1.27;;;;;;;;;;4973052;28;21131;-57
2023/03/26 03:49:38;;;;;;;1.30;1.30;;;;;;;;;;4960111;28;20195;-56
2023/03/26 03:52:04;;;;;;;1.10;1.10;;;;;;;;;;4972152;28;20186;-57
2023/03/26 03:54:30;;;;;;;1.37;1.37;;;;;;;;;;4971674;28;20197;-56
2023/03/26 03:56:57;;;;;;;1.20;1.20;;;;;;;;;;4975561;28;20205;-56
2023/03/26 03:59:23;;;;;;;1.37;1.37;;;;;;;;;;4974982;28;20567;-56
2023/03/26 04:01:49;;;;;;;1.30;1.30;;;;;;;;;;4972597;28;20199;-56
2023/03/26 04:04:15;;;;;;;1.40;1.40;;;;;;;;;;4973135;28;21918;-56
2023/03/26 04:06:41;;;;;;;1.20;1.20;;;;;;;;;;4975206;28;20205;-57
2023/03/26 04:09:09;;;;;;;1.20;1.20;;;;;;;;;;4974503;28;20198;-57
2023/03/26 04:11:35;;;;;;;1.30;1.30;;;;;;;;;;4973727;28;20183;-57
2023/03/26 04:14:01;;;;;;;1.10;1.10;;;;;;;;;;4971193;28;20202;-57
2023/03/26 04:16:27;;;;;;;1.20;1.20;;;;;;;;;;4972707;28;20191;-57
2023/03/26 04:18:52;;;;;;;1.40;1.40;;;;;;;;;;4968308;28;20595;-56
2023/03/26 04:21:18;;;;;;;1.20;1.20;;;;;;;;;;4975145;28;20198;-56
2023/03/26 04:23:44;;;;;;;1.40;1.40;;;;;;;;;;4974097;28;20280;-56
2023/03/26 04:26:15;;;;;;;1.30;1.30;;;;;;;;;;4974984;28;20182;-56
2023/03/26 04:28:54;;;;;;;1.20;1.20;;;;;;;;;;4972860;28;20198;-56
2023/03/26 04:31:27;;;;;;;1.10;1.10;;;;;;;;;;4970949;28;20201;-56
2023/03/26 04:33:55;;;;;;;1.40;1.40;;;;;;;;;;4956447;28;20525;-56
2023/03/26 04:36:22;;;;;;;1.30;1.30;;;;;;;;;;4967968;28;20194;-56
2023/03/26 04:38:50;;;;;;;1.30;1.30;;;;;;;;;;4958174;28;20689;-56
2023/03/26 04:41:16;;;;;;;1.50;1.50;;;;;;;;;;4970872;28;20233;-57
2023/03/26 04:43:46;;;;;;;1.20;1.20;;;;;;;;;;4967912;28;20304;-56
2023/03/26 04:46:17;;;;;;;1.30;1.30;;;;;;;;;;4970047;28;20651;-57
2023/03/26 04:48:43;;;;;;;1.30;1.30;;;;;;;;;;4969508;28;20262;-56
2023/03/26 04:51:17;;;;;;;1.20;1.20;;;;;;;;;;4971603;28;20194;-56
2023/03/26 04:54:04;;;;;;;1.30;1.30;;;;;;;;;;4966483;28;20546;-56
2023/03/26 04:56:30;;;;;;;1.40;1.40;;;;;;;;;;4975580;28;20202;-56
2023/03/26 04:58:58;;;;;;;1.20;1.20;;;;;;;;;;4966631;28;20575;-56
2023/03/26 05:01:27;;;;;;;1.30;1.30;;;;;;;;;;4949889;28;20203;-56
2023/03/26 05:03:53;;;;;;;1.40;1.40;;;;;;;;;;4975743;28;20250;-56
2023/03/26 05:06:19;;;;;;;1.50;1.50;;;;;;;;;;4972858;28;20568;-56
2023/03/26 05:08:45;;;;;;;1.47;1.47;;;;;;;;;;4962181;28;20178;-57
2023/03/26 05:11:11;;;;;;;1.70;1.70;;;;;;;;;;4974591;28;20186;-56
2023/03/26 05:13:37;;;;;;;1.50;1.50;;;;;;;;;;4970759;28;20198;-56
2023/03/26 05:16:03;;;;;;;1.60;1.60;;;;;;;;;;4970075;28;20202;-57
2023/03/26 05:18:31;;;;;;;1.50;1.50;;;;;;;;;;4974474;28;20198;-56
2023/03/26 05:20:57;;;;;;;1.20;1.20;;;;;;;;;;4973917;28;20657;-56
2023/03/26 05:23:22;;;;;;;1.20;1.20;;;;;;;;;;4973172;28;20187;-56
2023/03/26 05:25:48;;;;;;;1.10;1.10;;;;;;;;;;4975298;28;20191;-57
2023/03/26 05:28:14;;;;;;;1.20;1.20;;;;;;;;;;4974693;28;20194;-56
2023/03/26 05:30:42;;;;;;;1.30;1.30;;;;;;;;;;4973826;28;20186;-56
2023/03/26 05:33:08;;;;;;;1.30;1.30;;;;;;;;;;4971868;28;20194;-56
2023/03/26 05:35:34;;;;;;;1.10;1.10;;;;;;;;;;4971620;28;20655;-56
2023/03/26 05:38:00;;;;;;;1.10;1.10;;;;;;;;;;4970786;28;20186;-56
2023/03/26 05:40:26;;;;;;;1.40;1.40;;;;;;;;;;4969149;28;20277;-57
2023/03/26 05:42:52;;;;;;;1.30;1.30;;;;;;;;;;4973695;28;20198;-56
2023/03/26 05:45:18;;;;;;;1.40;1.40;;;;;;;;;;4970850;28;20222;-56
2023/03/26 05:47:44;;;;;;;1.40;1.40;;;;;;;;;;4977155;28;20563;-57
2023/03/26 05:50:10;;;;;;;1.17;1.17;;;;;;;;;;4977913;28;20206;-57
2023/03/26 05:52:36;;;;;;;1.10;1.10;;;;;;;;;;4978524;28;20204;-56
2023/03/26 05:55:02;;;;;;;1.20;1.20;;;;;;;;;;4975105;28;20202;-56
2023/03/26 05:57:29;;;;;;;1.20;1.20;;;;;;;;;;4975229;28;20690;-56
2023/03/26 05:59:55;;;;;;;1.17;1.17;;;;;;;;;;4972315;28;20190;-56
2023/03/26 06:02:21;;;;;;;1.30;1.30;;;;;;;;;;4976878;28;20279;-55
2023/03/26 06:04:47;;;;;;;1.40;1.40;;;;;;;;;;4969886;28;20668;-56
2023/03/26 06:07:15;;;;;;;1.30;1.30;;;;;;;;;;4976554;28;20186;-56
2023/03/26 06:09:41;;;;;;;1.30;1.30;;;;;;;;;;4973577;28;20213;-55
2023/03/26 06:12:07;;;;;;;1.23;1.23;;;;;;;;;;4975994;28;20191;-55
2023/03/26 06:14:33;;;;;;;1.20;1.20;;;;;;;;;;4971697;28;20728;-55
2023/03/26 06:16:59;;;;;;;1.10;1.10;;;;;;;;;;4976186;28;20281;-56
2023/03/26 06:19:25;;;;;;;1.20;1.20;;;;;;;;;;4979610;28;20313;-56
2023/03/26 06:21:51;;;;;;;1.10;1.10;;;;;;;;;;4977794;28;20290;-55
2023/03/26 06:24:18;;;;;;;1.30;1.30;;;;;;;;;;4976166;28;20364;-55
2023/03/26 06:26:45;;;;;;;1.30;1.30;;;;;;;;;;4971636;28;20332;-57
2023/03/26 06:29:11;;;;;;;1.40;1.40;;;;;;;;;;4975813;28;20261;-56
2023/03/26 06:31:37;;;;;;;1.30;1.30;;;;;;;;;;4975417;28;20190;-59
2023/03/26 06:34:03;;;;;;;1.40;1.40;;;;;;;;;;4974632;28;20285;-56
2023/03/26 06:36:29;;;;;;;1.23;1.23;;;;;;;;;;4981829;28;20314;-56
2023/03/26 06:38:55;;;;;;;1.10;1.10;;;;;;;;;;4977579;28;20191;-59
2023/03/26 06:41:21;;;;;;;1.30;1.30;;;;;;;;;;4974790;28;20199;-56
2023/03/26 06:43:47;;;;;;;1.10;1.10;;;;;;;;;;4971534;28;20276;-58
2023/03/26 06:46:13;;;;;;;1.37;1.37;;;;;;;;;;4975845;28;20198;-55
2023/03/26 06:48:40;;;;;;;1.20;1.20;;;;;;;;;;4970909;28;20284;-54
2023/03/26 06:51:06;;;;;;;1.00;1.00;;;;;;;;;;4973272;28;20182;-55
2023/03/26 06:53:32;;;;;;;1.10;1.10;;;;;;;;;;4973342;28;20350;-55
2023/03/26 06:55:58;;;;;;;1.20;1.20;;;;;;;;;;4962155;28;20187;-62
2023/03/26 06:58:24;;;;;;;1.50;1.50;;;;;;;;;;4971493;28;20686;-56
2023/03/26 07:00:54;;;;;;;1.10;1.10;;;;;;;;;;4974603;28;20630;-55
2023/03/26 07:03:20;;;;;;;1.33;1.33;;;;;;;;;;4971948;28;20234;-57
2023/03/26 07:05:46;;;;;;;1.00;1.00;;;;;;;;;;4974409;28;20355;-55
2023/03/26 07:08:12;;;;;;;1.20;1.20;;;;;;;;;;4973750;28;20228;-55
2023/03/26 07:10:38;;;;;;;1.10;1.10;;;;;;;;;;4970157;28;20195;-54
2023/03/26 07:13:04;;;;;;;1.13;1.13;;;;;;;;;;4976902;28;20183;-54
2023/03/26 07:15:30;;;;;;;1.10;1.10;;;;;;;;;;4967704;28;20652;-55
2023/03/26 07:17:56;;;;;;;1.10;1.10;;;;;;;;;;4972651;28;20199;-54
2023/03/26 07:20:22;;;;;;;1.20;1.20;;;;;;;;;;4964818;28;20190;-54
2023/03/26 07:22:48;;;;;;;1.20;1.20;;;;;;;;;;4946681;28;21139;-54
2023/03/26 07:25:15;;;;;;;1.30;1.30;;;;;;;;;;4969077;28;20222;-54
2023/03/26 07:27:46;;;;;;;1.10;1.10;;;;;;;;;;4969532;28;20194;-55
2023/03/26 07:30:14;;;;;;;1.17;1.17;;;;;;;;;;4973210;28;20191;-54
2023/03/26 07:32:44;;;;;;;1.33;1.33;;;;;;;;;;4961557;28;20191;-55
2023/03/26 07:35:17;;;;;;;1.10;1.10;;;;;;;;;;4964434;28;20206;-57
2023/03/26 07:37:52;;;;;;;1.20;1.20;;;;;;;;;;4972131;28;20193;-54
2023/03/26 07:40:39;;;;;;;1.10;1.10;;;;;;;;;;4972009;28;20252;-56
2023/03/26 07:43:08;;;;;;;1.10;1.10;;;;;;;;;;4945713;28;20200;-56
2023/03/26 07:45:41;;;;;;;1.30;1.30;;;;;;;;;;4966556;28;20734;-55
2023/03/26 07:48:28;;;;;;;1.10;1.10;;;;;;;;;;4969610;28;20179;-58
2023/03/26 07:50:54;;;;;;;1.27;1.27;;;;;;;;;;4962709;28;20213;-56
2023/03/26 07:53:21;;;;;;;1.30;1.30;;;;;;;;;;4959440;28;20190;-55
2023/03/26 07:55:46;;;;;;;1.40;1.40;;;;;;;;;;4965920;28;20257;-55
2023/03/26 07:58:12;;;;;;;1.17;1.17;;;;;;;;;;4956034;28;20186;-56
2023/03/26 08:00:38;;;;;;;1.10;1.10;;;;;;;;;;4965498;28;20204;-55
2023/03/26 08:03:16;;;;;;;1.30;1.30;;;;;;;;;;4967846;28;20205;-55
2023/03/26 08:05:42;;;;;;;1.30;1.30;;;;;;;;;;4948443;28;20589;-55
2023/03/26 08:08:15;;;;;;;1.30;1.30;;;;;;;;;;4969901;28;20665;-55
2023/03/26 08:10:44;;;;;;;1.10;1.10;;;;;;;;;;4955138;28;20191;-55
2023/03/26 08:13:22;;;;;;;1.20;1.20;;;;;;;;;;4973243;28;20651;-56
2023/03/26 08:16:07;;;;;;;1.30;1.30;;;;;;;;;;4969372;28;20195;-54
2023/03/26 08:18:48;;;;;;;1.30;1.30;;;;;;;;;;4979946;28;20561;-54
2023/03/26 08:21:26;;;;;;;1.20;1.20;;;;;;;;;;4975924;28;20202;-55
2023/03/26 08:23:54;;;;;;;1.30;1.30;;;;;;;;;;4961055;28;20786;-55
2023/03/26 08:26:40;;;;;;;1.30;1.30;;;;;;;;;;4968914;28;20222;-55
2023/03/26 08:29:26;;;;;;;1.60;1.60;;;;;;;;;;4953915;28;20231;-59
2023/03/26 08:31:52;;;;;;;1.20;1.20;;;;;;;;;;4965348;28;20320;-54
2023/03/26 08:34:18;;;;;;;1.20;1.20;;;;;;;;;;4965102;28;20198;-55
2023/03/26 08:36:44;;;;;;;1.20;1.20;;;;;;;;;;4973134;28;20237;-54
2023/03/26 08:39:10;;;;;;;1.20;1.20;;;;;;;;;;4966523;28;20198;-55
2023/03/26 08:41:55;;;;;;;1.30;1.30;;;;;;;;;;4967386;28;20214;-56
2023/03/26 08:44:21;;;;;;;1.30;1.30;;;;;;;;;;4966781;28;20682;-55
2023/03/26 08:46:51;;;;;;;1.40;1.40;;;;;;;;;;4958326;28;20249;-55
2023/03/26 08:49:20;;;;;;;1.17;1.17;;;;;;;;;;4952449;28;20903;-55
2023/03/26 08:51:49;;;;;;;1.40;1.40;;;;;;;;;;4967650;28;20222;-56
2023/03/26 08:54:22;;;;;;;1.40;1.40;;;;;;;;;;4966341;28;20231;-56
2023/03/26 08:56:52;;;;;;;1.40;1.40;;;;;;;;;;4960689;28;20200;-55
2023/03/26 08:59:41;;;;;;;1.40;1.40;;;;;;;;;;4950779;28;20551;-54
2023/03/26 09:02:25;;;;;;;1.20;1.20;;;;;;;;;;4968422;28;20186;-56
2023/03/26 09:05:10;;;;;;;1.20;1.20;;;;;;;;;;4957079;28;20618;-55
2023/03/26 09:08:02;;;;;;;1.20;1.20;;;;;;;;;;4971142;28;20183;-56
2023/03/26 09:10:47;;;;;;;1.30;1.30;;;;;;;;;;4933229;28;20205;-56
2023/03/26 09:13:22;;;;;;;1.50;1.50;;;;;;;;;;4968805;28;20670;-54
2023/03/26 09:15:54;;;;;;;1.10;1.10;;;;;;;;;;4962580;28;20496;-55
2023/03/26 09:18:39;;;;;;;1.33;1.33;;;;;;;;;;4969636;28;20199;-55
2023/03/26 09:21:08;;;;;;;1.30;1.30;;;;;;;;;;4967135;28;20281;-57
2023/03/26 09:23:52;;;;;;;1.20;1.20;;;;;;;;;;4967912;28;20206;-54
2023/03/26 09:26:18;;;;;;;1.20;1.20;;;;;;;;;;4973133;28;20248;-55
2023/03/26 09:28:50;;;;;;;1.33;1.33;;;;;;;;;;4971642;28;20194;-55
2023/03/26 09:31:39;;;;;;;1.67;1.67;;;;;;;;;;4975633;28;20216;-55
2023/03/26 09:34:24;;;;;;;1.30;1.30;;;;;;;;;;4969931;28;20203;-56
2023/03/26 09:36:57;;;;;;;1.40;1.40;;;;;;;;;;4966505;28;20190;-55
2023/03/26 09:39:32;;;;;;;1.30;1.30;;;;;;;;;;4973029;28;20198;-55
2023/03/26 09:42:04;;;;;;;1.33;1.33;;;;;;;;;;4959264;28;22180;-54
2023/03/26 09:44:48;;;;;;;1.13;1.13;;;;;;;;;;4951806;28;20210;-56
2023/03/26 09:47:20;;;;;;;1.30;1.30;;;;;;;;;;4965343;28;20378;-56
2023/03/26 09:49:51;;;;;;;1.03;1.03;;;;;;;;;;4958823;28;20199;-56
2023/03/26 09:52:26;;;;;;;1.10;1.10;;;;;;;;;;4965239;28;20277;-55
2023/03/26 09:54:52;;;;;;;1.10;1.10;;;;;;;;;;4965324;28;20205;-54
2023/03/26 09:57:18;;;;;;;1.30;1.30;;;;;;;;;;4969356;28;20765;-55
2023/03/26 09:59:55;;;;;;;1.30;1.30;;;;;;;;;;4968201;28;20199;-56
2023/03/26 10:02:40;;;;;;;1.10;1.10;;;;;;;;;;4953377;28;20650;-55
2023/03/26 10:05:15;;;;;;;1.20;1.20;;;;;;;;;;4969576;28;20239;-56
2023/03/26 10:08:00;;;;;;;1.10;1.10;;;;;;;;;;4966761;28;20209;-55
2023/03/26 10:10:26;;;;;;;1.10;1.10;;;;;;;;;;4972823;28;20201;-54
2023/03/26 10:12:53;;;;;;;1.10;1.10;;;;;;;;;;4967136;28;20799;-55
2023/03/26 10:15:19;;;;;;;1.17;1.17;;;;;;;;;;4958316;28;20244;-58
2023/03/26 10:18:06;;;;;;;1.10;1.10;;;;;;;;;;4968285;28;20203;-55
2023/03/26 10:20:51;;;;;;;1.10;1.10;;;;;;;;;;4972968;28;20206;-56
2023/03/26 10:23:26;;;;;;;1.00;1.00;;;;;;;;;;4971341;28;20305;-55
2023/03/26 10:26:11;;;;;;;1.70;1.70;;;;;;;;;;4970287;28;20229;-55
2023/03/26 10:28:52;;;;;;;2.00;1.90;;;;;;;;;;4968671;28;20187;-56
2023/03/26 10:31:21;;;;;;;2.00;1.90;;;;;;;;;;4972116;28;20190;-55
2023/03/26 10:33:56;;;;;;;1.60;1.60;;;;;;;;;;4967047;28;20214;-55
2023/03/26 10:36:35;;;;;;;2.03;1.93;;;;;;;;;;4967188;28;20198;-55
2023/03/26 10:39:14;;;;;;;2.30;2.20;;;;;;;;;;4970530;28;20581;-55
2023/03/26 10:41:47;;;;;;;1.90;1.80;;;;;;;;;;4966876;28;20240;-55
2023/03/26 10:44:20;;;;;;;2.10;2.00;;;;;;;;;;4948952;28;20221;-55
2023/03/26 10:47:07;;;;;;;1.70;1.70;;;;;;;;;;4968031;28;20217;-55
2023/03/26 10:49:36;;;;;;;1.90;1.80;;;;;;;;;;4972419;28;20667;-55
2023/03/26 10:52:03;;;;;;;1.80;1.70;;;;;;;;;;4950376;28;20244;-55
2023/03/26 10:54:32;;;;;;;1.93;1.83;;;;;;;;;;4940626;28;21081;-56
2023/03/26 10:56:58;;;;;;;1.90;1.80;;;;;;;;;;4967668;28;21415;-55
2023/03/26 10:59:24;;;;;;;2.00;1.90;;;;;;;;;;4970209;28;20191;-55
2023/03/26 11:02:09;;;;;;;1.67;1.67;;;;;;;;;;4975829;28;20190;-54
2023/03/26 11:04:54;;;;;;;1.17;1.17;;;;;;;;;;4968690;28;20601;-56
2023/03/26 11:07:20;;;;;;;1.10;1.10;;;;;;;;;;4969923;28;20303;-55
2023/03/26 11:09:48;;;;;;;1.00;1.00;;;;;;;;;;4973266;28;20194;-55
2023/03/26 11:12:17;;;;;;;1.10;1.10;;;;;;;;;;4937051;28;20194;-58
2023/03/26 11:14:53;;;;;;;1.20;1.20;;;;;;;;;;4968615;28;20206;-55
2023/03/26 11:17:26;;;;;;;1.20;1.20;;;;;;;;;;4949016;28;20715;-61
2023/03/26 11:19:53;;;;;;;1.17;1.17;;;;;;;;;;4965952;28;20205;-61
2023/03/26 11:22:45;;;;;;;1.40;1.40;;;;;;;;;;4955937;28;20205;-57
2023/03/26 11:25:32;;;;;;;1.00;1.00;;;;;;;;;;4947029;28;20795;-55
2023/03/26 11:28:17;;;;;;;1.20;1.20;;;;;;;;;;4962990;28;20626;-55
2023/03/26 11:30:48;;;;;;;1.00;1.00;;;;;;;;;;4968824;28;20190;-55
2023/03/26 11:33:20;;;;;;;1.10;1.10;;;;;;;;;;4961788;28;20560;-55
2023/03/26 11:35:47;;;;;;;1.20;1.20;;;;;;;;;;4959978;28;20194;-55
2023/03/26 11:38:13;;;;;;;1.10;1.10;;;;;;;;;;4960206;28;20544;-56
2023/03/26 11:40:44;;;;;;;1.10;1.10;;;;;;;;;;4967333;28;20194;-56
2023/03/26 11:43:10;;;;;;;1.30;1.30;;;;;;;;;;4951641;28;20467;-55
2023/03/26 11:45:41;;;;;;;1.10;1.10;;;;;;;;;;4961840;28;20222;-56
2023/03/26 11:48:23;;;;;;;1.10;1.10;;;;;;;;;;4968051;28;20664;-56
2023/03/26 11:50:50;;;;;;;0.70;0.70;;;;;;;;;;4967650;28;20193;-56
2023/03/26 11:53:16;;;;;;;0.70;0.70;;;;;;;;;;4969807;28;20290;-56
2023/03/26 11:56:02;;;;;;;1.00;1.00;;;;;;;;;;4957331;28;20193;-55
2023/03/26 11:58:30;;;;;;;1.20;1.20;;;;;;;;;;4952925;28;20194;-55
2023/03/26 12:00:56;;;;;;;1.30;1.30;;;;;;;;;;4949559;28;20195;-55
2023/03/26 12:03:23;;;;;;;1.30;1.30;;;;;;;;;;4958365;28;21434;-55
2023/03/26 12:05:50;;;;;;;1.30;1.30;;;;;;;;;;4955195;28;20214;-55
2023/03/26 12:08:20;;;;;;;1.30;1.30;;;;;;;;;;4961899;28;20196;-55
2023/03/26 12:10:50;;;;;;;1.10;1.10;;;;;;;;;;4966396;28;20179;-55
2023/03/26 12:13:23;;;;;;;1.17;1.17;;;;;;;;;;4976930;28;20600;-55
2023/03/26 12:15:49;;;;;;;1.10;1.10;;;;;;;;;;4970264;28;20612;-55
2023/03/26 12:18:25;;;;;;;1.10;1.10;;;;;;;;;;4974483;28;20190;-55
2023/03/26 12:21:11;;;;;;;1.30;1.30;;;;;;;;;;4971871;28;20198;-55
2023/03/26 12:23:39;;;;;;;1.20;1.20;;;;;;;;;;4974494;28;20668;-55
2023/03/26 12:26:13;;;;;;;1.10;1.10;;;;;;;;;;4976683;28;20200;-54
2023/03/26 12:28:43;;;;;;;1.10;1.10;;;;;;;;;;4973345;28;20222;-55
2023/03/26 12:31:10;;;;;;;1.10;1.10;;;;;;;;;;4974250;28;20187;-55
2023/03/26 12:33:37;;;;;;;1.20;1.20;;;;;;;;;;4971637;28;20198;-56
2023/03/26 12:36:25;;;;;;;1.20;1.20;;;;;;;;;;4977197;28;20199;-54
2023/03/26 12:38:51;;;;;;;1.40;1.40;;;;;;;;;;4973392;28;20250;-54
2023/03/26 12:41:17;;;;;;;1.30;1.30;;;;;;;;;;4972964;28;20194;-55
2023/03/26 12:43:45;;;;;;;1.20;1.20;;;;;;;;;;4972958;28;20186;-54
2023/03/26 12:46:22;;;;;;;1.10;1.10;;;;;;;;;;4975187;28;20918;-54
2023/03/26 12:48:48;;;;;;;1.20;1.20;;;;;;;;;;4975476;28;20225;-55
2023/03/26 12:51:33;;;;;;;1.30;1.30;;;;;;;;;;4974026;28;20198;-55
2023/03/26 12:54:08;;;;;;;1.20;1.20;;;;;;;;;;4970458;28;20186;-55
2023/03/26 12:56:40;;;;;;;1.30;1.30;;;;;;;;;;4973168;28;20209;-55
2023/03/26 12:59:10;;;;;;;1.53;1.53;;;;;;;;;;4972017;28;20186;-54
2023/03/26 13:01:36;;;;;;;1.20;1.20;;;;;;;;;;4974033;28;20212;-54
2023/03/26 13:04:21;;;;;;;1.20;1.20;;;;;;;;;;4973893;28;20756;-55
2023/03/26 13:06:52;;;;;;;1.20;1.20;;;;;;;;;;4972667;28;20274;-56
2023/03/26 13:09:40;;;;;;;1.40;1.40;;;;;;;;;;4969503;28;20549;-54
2023/03/26 13:12:06;;;;;;;1.20;1.20;;;;;;;;;;4972873;28;20186;-56
2023/03/26 13:14:35;;;;;;;1.40;1.40;;;;;;;;;;4972888;28;20256;-55
2023/03/26 13:17:08;;;;;;;1.20;1.20;;;;;;;;;;4973978;28;20210;-54
2023/03/26 13:19:50;;;;;;;1.20;1.20;;;;;;;;;;4973395;28;20190;-56
2023/03/26 13:22:29;;;;;;;1.30;1.30;;;;;;;;;;4958865;28;20252;-55
2023/03/26 13:25:02;;;;;;;1.20;1.20;;;;;;;;;;4974433;28;20218;-54
2023/03/26 13:27:37;;;;;;;1.10;1.10;;;;;;;;;;4974617;28;20364;-55
2023/03/26 13:30:23;;;;;;;1.40;1.40;;;;;;;;;;4972173;28;20179;-55
2023/03/26 13:32:49;;;;;;;1.20;1.20;;;;;;;;;;4969054;28;20206;-55
2023/03/26 13:35:19;;;;;;;1.20;1.20;;;;;;;;;;4972973;28;20195;-55
2023/03/26 13:37:45;;;;;;;1.30;1.30;;;;;;;;;;4967255;28;20194;-55
2023/03/26 13:40:24;;;;;;;1.40;1.40;;;;;;;;;;4971997;28;20642;-55
2023/03/26 13:43:12;;;;;;;1.50;1.50;;;;;;;;;;4962016;28;20205;-55
2023/03/26 13:45:44;;;;;;;1.50;1.50;;;;;;;;;;4975940;28;20669;-59
2023/03/26 13:48:11;;;;;;;1.40;1.40;;;;;;;;;;4973537;28;20565;-55
2023/03/26 13:50:38;;;;;;;1.10;1.10;;;;;;;;;;4972221;28;20240;-55
2023/03/26 13:53:09;;;;;;;1.20;1.20;;;;;;;;;;4973768;28;20193;-54
2023/03/26 13:55:42;;;;;;;1.30;1.30;;;;;;;;;;4969572;28;20190;-54
2023/03/26 13:58:21;;;;;;;1.90;1.80;;;;;;;;;;4970856;28;20202;-55
2023/03/26 14:00:57;;;;;;;1.30;1.30;;;;;;;;;;4955891;28;20201;-54
2023/03/26 14:03:25;;;;;;;2.03;1.93;;;;;;;;;;4967877;28;20654;-57
2023/03/26 14:05:51;;;;;;;2.00;1.90;;;;;;;;;;4968343;28;20248;-54
2023/03/26 14:08:17;;;;;;;1.80;1.70;;;;;;;;;;4955308;28;20194;-54
2023/03/26 14:10:45;;;;;;;2.00;1.90;;;;;;;;;;4968378;28;20194;-55
2023/03/26 14:13:29;;;;;;;1.40;1.40;;;;;;;;;;4958995;28;20202;-54
2023/03/26 14:15:56;;;;;;;1.50;1.50;;;;;;;;;;4973208;28;20182;-54
2023/03/26 14:18:24;;;;;;;1.30;1.30;;;;;;;;;;4974426;28;20218;-54
2023/03/26 14:20:51;;;;;;;1.30;1.30;;;;;;;;;;4972830;28;20241;-58
2023/03/26 14:23:20;;;;;;;1.30;1.30;;;;;;;;;;4971195;28;20475;-55
2023/03/26 14:25:46;;;;;;;1.30;1.30;;;;;;;;;;4970373;28;20210;-55
2023/03/26 14:28:15;;;;;;;1.60;1.60;;;;;;;;;;4973008;28;20187;-55
2023/03/26 14:30:57;;;;;;;1.40;1.40;;;;;;;;;;4967463;28;20564;-54
2023/03/26 14:33:32;;;;;;;1.30;1.30;;;;;;;;;;4968434;28;20678;-54
2023/03/26 14:36:00;;;;;;;1.30;1.30;;;;;;;;;;4970798;28;20334;-54
2023/03/26 14:38:32;;;;;;;1.70;1.70;;;;;;;;;;4960017;28;20999;-54
2023/03/26 14:41:05;;;;;;;1.27;1.27;;;;;;;;;;4972731;28;20229;-55
2023/03/26 14:43:40;;;;;;;1.37;1.37;;;;;;;;;;4972113;28;20289;-55
2023/03/26 14:46:18;;;;;;;1.10;1.10;;;;;;;;;;4975498;28;20213;-54
2023/03/26 14:48:57;;;;;;;1.20;1.20;;;;;;;;;;4975755;28;20201;-54
2023/03/26 14:51:26;;;;;;;1.20;1.20;;;;;;;;;;4963971;28;20194;-54
2023/03/26 14:53:52;;;;;;;1.30;1.30;;;;;;;;;;4972617;28;20198;-55
2023/03/26 14:56:37;;;;;;;1.40;1.40;;;;;;;;;;4974187;28;20190;-55
2023/03/26 14:59:22;;;;;;;1.50;1.50;;;;;;;;;;4955835;28;20727;-54
2023/03/26 15:02:06;;;;;;;1.40;1.40;;;;;;;;;;4977145;28;20280;-54
2023/03/26 15:04:51;;;;;;;1.50;1.50;;;;;;;;;;4975832;28;22032;-54